createdAt,value
2017-03-04T00:03:34.234Z,0
2017-03-04T00:13:45.324Z,0
2017-03-04T00:23:56.410Z,0
2017-03-04T00:34:07.559Z,0
2017-03-04T00:44:18.646Z,0
2017-03-04T00:54:29.730Z,0
2017-03-04T01:04:40.850Z,0
2017-03-04T01:14:51.896Z,0
2017-03-04T01:25:03.031Z,0
2017-03-04T01:35:14.035Z,0
2017-03-04T01:45:25.103Z,0
2017-03-04T01:55:36.202Z,0
2017-03-04T02:05:47.307Z,0
2017-03-04T02:15:58.365Z,0
2017-03-04T02:26:09.394Z,0
2017-03-04T02:36:20.432Z,0
2017-03-04T02:46:31.499Z,0
2017-03-04T02:56:42.565Z,0
2017-03-04T03:06:53.592Z,0
2017-03-04T03:17:04.596Z,0
2017-03-04T03:27:15.624Z,0
2017-03-04T03:37:26.600Z,0
2017-03-04T03:47:37.578Z,0
2017-03-04T03:57:48.524Z,0
2017-03-04T04:07:59.564Z,0
2017-03-04T04:18:10.606Z,0
2017-03-04T04:28:21.601Z,0
2017-03-04T04:38:32.579Z,0
2017-03-04T04:48:43.508Z,0
2017-03-04T04:58:54.420Z,0
2017-03-04T05:09:05.358Z,0
2017-03-04T05:19:16.186Z,0
2017-03-04T05:29:27.125Z,0
2017-03-04T05:39:38.094Z,4
2017-03-04T05:49:49.029Z,16
2017-03-04T05:59:59.962Z,72
2017-03-04T06:10:10.860Z,220
2017-03-04T06:20:21.715Z,616
2017-03-04T06:30:32.583Z,1256
2017-03-04T06:40:43.507Z,2116
2017-03-04T06:50:54.312Z,3032
2017-03-04T07:01:05.121Z,3348
2017-03-04T07:11:15.883Z,4552
2017-03-04T07:21:26.633Z,5752
2017-03-04T07:31:37.313Z,6952
2017-03-04T07:41:47.878Z,7848
2017-03-04T07:51:58.345Z,10148
2017-03-04T08:02:08.786Z,14760
2017-03-04T08:12:19.110Z,19616
2017-03-04T08:22:29.273Z,21504
2017-03-04T08:32:39.391Z,17984
2017-03-04T08:42:49.427Z,16896
2017-03-04T08:52:59.467Z,18880
2017-03-04T09:03:09.441Z,19488
2017-03-04T09:13:19.401Z,20640
2017-03-04T09:23:29.307Z,19392
2017-03-04T09:33:39.020Z,22304
2017-03-04T09:43:48.745Z,27552
2017-03-04T09:53:58.384Z,29344
2017-03-04T10:04:07.958Z,35424
2017-03-04T10:14:17.435Z,30368
2017-03-04T10:24:26.860Z,33248
2017-03-04T10:34:36.265Z,33056
2017-03-04T10:44:45.545Z,33632
2017-03-04T10:54:54.811Z,29312
2017-03-04T11:05:04.064Z,37696
2017-03-04T11:15:13.392Z,28000
2017-03-04T11:25:22.566Z,23968
2017-03-04T11:35:31.887Z,27456
2017-03-04T11:45:41.164Z,26912
2017-03-04T11:55:50.382Z,35072
2017-03-04T12:05:59.549Z,40096
2017-03-04T12:16:08.645Z,34688
2017-03-04T12:26:17.712Z,104736
2017-03-04T12:36:26.476Z,57344
2017-03-04T12:46:35.086Z,92192
2017-03-04T12:56:43.673Z,91264
2017-03-04T13:06:52.128Z,41600
2017-03-04T13:17:00.802Z,39168
2017-03-04T13:27:09.722Z,27840
2017-03-04T13:37:18.663Z,23904
2017-03-04T13:47:27.725Z,32448
2017-03-04T13:57:36.759Z,26880
2017-03-04T14:07:45.802Z,36032
2017-03-04T14:17:54.799Z,17728
2017-03-04T14:28:03.954Z,14008
2017-03-04T14:38:13.096Z,14564
2017-03-04T14:48:22.410Z,26784
2017-03-04T14:58:31.701Z,16864
2017-03-04T15:08:41.016Z,11944
2017-03-04T15:18:50.717Z,11184
2017-03-04T15:29:00.032Z,9556
2017-03-04T15:39:09.649Z,8860
2017-03-04T15:49:19.247Z,7868
2017-03-04T15:59:28.901Z,6764
2017-03-04T16:09:38.650Z,5596
2017-03-04T16:19:48.421Z,3828
2017-03-04T16:29:58.307Z,2844
2017-03-04T16:40:08.275Z,2104
2017-03-04T16:50:18.227Z,1436
2017-03-04T17:00:28.296Z,732
2017-03-04T17:10:38.488Z,320
2017-03-04T17:20:48.548Z,132
2017-03-04T17:30:58.768Z,32
2017-03-04T17:41:09.093Z,4
2017-03-04T17:51:19.467Z,0
2017-03-04T18:01:29.920Z,0
2017-03-04T18:11:40.241Z,0
2017-03-04T18:21:50.632Z,0
2017-03-04T18:32:01.067Z,0
2017-03-04T18:42:11.502Z,0
2017-03-04T18:52:21.932Z,0
2017-03-04T19:02:32.385Z,0
2017-03-04T19:12:42.929Z,0
2017-03-04T19:22:53.311Z,0
2017-03-04T19:33:03.777Z,0
2017-03-04T19:43:14.285Z,0
2017-03-04T19:53:24.771Z,0
2017-03-04T20:03:35.249Z,0
2017-03-04T20:13:45.731Z,0
2017-03-04T20:23:56.229Z,0
2017-03-04T20:34:06.690Z,0
2017-03-04T20:44:17.249Z,0
2017-03-04T20:54:27.986Z,0
2017-03-04T21:04:38.858Z,0
2017-03-04T21:14:49.729Z,0
2017-03-04T21:25:00.762Z,0
2017-03-04T21:35:11.728Z,0
2017-03-04T21:45:22.813Z,0
2017-03-04T21:55:33.890Z,0
2017-03-04T22:05:44.980Z,0
2017-03-04T22:15:56.089Z,0
2017-03-04T22:26:07.159Z,0
2017-03-04T22:36:18.179Z,0
2017-03-04T22:46:29.181Z,0
2017-03-04T22:56:40.259Z,0
2017-03-04T23:06:51.328Z,0
2017-03-04T23:17:02.380Z,0
2017-03-04T23:27:13.428Z,0
2017-03-04T23:37:24.498Z,0
2017-03-04T23:47:35.588Z,0
2017-03-04T23:57:46.670Z,0
